createdAt,value
2018-12-22T00:00:44.258Z,11.27
2018-12-22T00:01:50.552Z,11.38
2018-12-22T00:02:56.825Z,11.39
2018-12-22T00:04:03.135Z,11.34
2018-12-22T00:05:09.112Z,11.36
2018-12-22T00:06:15.455Z,11.34
2018-12-22T00:07:21.755Z,11.25
2018-12-22T00:08:28.022Z,11.22
2018-12-22T00:09:34.442Z,11.27
2018-12-22T00:10:40.746Z,11.41
2018-12-22T00:11:47.021Z,11.29
2018-12-22T00:12:53.336Z,11.23
2018-12-22T00:13:59.636Z,11.35
2018-12-22T00:15:05.568Z,11.39
2018-12-22T00:16:11.906Z,11.29
2018-12-22T00:17:18.163Z,11.17
2018-12-22T00:18:24.464Z,11.19
2018-12-22T00:19:30.748Z,11.19
2018-12-22T00:20:37.038Z,11.23
2018-12-22T00:21:43.000Z,11.22
2018-12-22T00:22:49.259Z,11.32
2018-12-22T00:23:55.519Z,11.26
2018-12-22T00:25:01.846Z,11.29
2018-12-22T00:26:07.793Z,11.15
2018-12-22T00:27:14.065Z,11.21
2018-12-22T00:28:22.335Z,11.24
2018-12-22T00:29:26.499Z,11.22
2018-12-22T00:30:32.747Z,11.19
2018-12-22T00:31:39.087Z,11.06
2018-12-22T00:32:45.413Z,11.08
2018-12-22T00:33:51.690Z,11.25
2018-12-22T00:34:57.966Z,11.26
2018-12-22T00:36:04.268Z,11.38
2018-12-22T00:37:10.554Z,11.25
2018-12-22T00:38:16.901Z,11.09
2018-12-22T00:39:23.200Z,11.01
2018-12-22T00:40:29.529Z,11.13
2018-12-22T00:41:35.861Z,11.15
2018-12-22T00:42:42.148Z,11.13
2018-12-22T00:43:48.481Z,11.19
2018-12-22T00:44:54.794Z,11.12
2018-12-22T00:46:01.170Z,11.19
2018-12-22T00:47:07.501Z,11.31
2018-12-22T00:48:13.819Z,11.20
2018-12-22T00:49:20.081Z,11.10
2018-12-22T00:50:26.370Z,11.04
2018-12-22T00:51:32.685Z,11.11
2018-12-22T00:52:38.996Z,11.09
2018-12-22T00:53:45.268Z,11.21
2018-12-22T00:54:51.568Z,11.10
2018-12-22T00:55:58.421Z,11.18
2018-12-22T00:57:04.750Z,11.25
2018-12-22T00:58:11.003Z,11.15
2018-12-22T00:59:17.287Z,11.20
2018-12-22T01:00:23.583Z,11.06
2018-12-22T01:01:29.911Z,11.19
2018-12-22T01:02:36.224Z,11.03
2018-12-22T01:03:42.535Z,11.02
2018-12-22T01:04:48.804Z,11.06
2018-12-22T01:05:55.124Z,11.21
2018-12-22T01:07:01.437Z,11.33
2018-12-22T01:08:07.729Z,11.15
2018-12-22T01:09:14.004Z,11.18
2018-12-22T01:10:20.019Z,11.20
2018-12-22T01:11:26.367Z,11.25
2018-12-22T01:12:32.684Z,11.32
2018-12-22T01:13:38.648Z,11.29
2018-12-22T01:14:44.949Z,11.28
2018-12-22T01:15:51.235Z,11.20
2018-12-22T01:16:57.614Z,11.18
2018-12-22T01:18:03.951Z,11.28
2018-12-22T01:19:10.242Z,11.19
2018-12-22T01:20:16.521Z,11.21
2018-12-22T01:21:22.916Z,11.32
2018-12-22T01:22:29.249Z,11.43
2018-12-22T01:23:35.534Z,11.47
2018-12-22T01:24:41.834Z,11.38
2018-12-22T01:25:48.094Z,11.33
2018-12-22T01:26:54.385Z,11.21
2018-12-22T01:28:00.680Z,11.17
2018-12-22T01:29:06.940Z,11.15
2018-12-22T01:30:13.226Z,11.24
2018-12-22T01:31:19.503Z,11.22
2018-12-22T01:32:25.801Z,11.14
2018-12-22T01:33:32.045Z,11.05
2018-12-22T01:34:38.312Z,11.08
2018-12-22T01:35:44.602Z,11.15
2018-12-22T01:36:50.903Z,11.22
2018-12-22T01:37:57.206Z,11.34
2018-12-22T01:39:03.095Z,11.27
2018-12-22T01:40:09.375Z,11.21
2018-12-22T01:41:15.700Z,11.07
2018-12-22T01:42:22.230Z,11.05
2018-12-22T01:43:28.573Z,11.09
2018-12-22T01:44:34.837Z,10.99
2018-12-22T01:45:41.120Z,10.93
2018-12-22T01:46:47.414Z,10.84
2018-12-22T01:47:53.711Z,10.90
2018-12-22T01:49:00.009Z,10.77
2018-12-22T01:50:05.610Z,10.78
2018-12-22T01:51:11.948Z,10.79
2018-12-22T01:52:17.915Z,10.85
2018-12-22T01:53:24.214Z,10.86
2018-12-22T01:54:30.488Z,10.89
2018-12-22T01:55:36.792Z,10.84
2018-12-22T01:56:43.090Z,10.75
2018-12-22T01:57:49.379Z,10.60
2018-12-22T01:58:56.532Z,10.58
2018-12-22T02:00:02.452Z,10.62
2018-12-22T02:01:08.771Z,10.32
2018-12-22T02:02:14.039Z,10.28
2018-12-22T02:03:19.295Z,10.11
2018-12-22T02:04:24.557Z,10.06
2018-12-22T02:05:30.856Z,9.92
2018-12-22T02:06:37.239Z,9.96
2018-12-22T02:07:43.536Z,9.93
2018-12-22T02:08:49.797Z,9.79
2018-12-22T02:09:56.088Z,9.61
2018-12-22T02:11:02.425Z,9.58
2018-12-22T02:12:08.771Z,9.58
2018-12-22T02:13:15.070Z,9.68
2018-12-22T02:14:21.380Z,9.56
2018-12-22T02:15:27.652Z,9.62
2018-12-22T02:16:33.932Z,9.67
2018-12-22T02:17:40.230Z,9.60
2018-12-22T02:18:46.176Z,9.58
2018-12-22T02:19:52.444Z,9.57
2018-12-22T02:20:58.732Z,9.57
2018-12-22T02:22:05.053Z,9.59
2018-12-22T02:23:11.298Z,9.63
2018-12-22T02:24:17.570Z,9.63
2018-12-22T02:25:23.840Z,9.62
2018-12-22T02:26:30.249Z,9.52
2018-12-22T02:27:35.836Z,9.51
2018-12-22T02:28:42.101Z,9.47
2018-12-22T02:29:48.340Z,9.63
2018-12-22T02:30:54.631Z,9.66
2018-12-22T02:32:00.958Z,9.68
2018-12-22T02:33:07.208Z,9.50
2018-12-22T02:34:13.461Z,9.46
2018-12-22T02:35:19.764Z,9.55
2018-12-22T02:36:26.071Z,9.66
2018-12-22T02:37:32.414Z,9.67
2018-12-22T02:38:38.392Z,9.55
2018-12-22T02:39:44.727Z,9.60
2018-12-22T02:40:51.025Z,9.56
2018-12-22T02:41:57.314Z,9.57
2018-12-22T02:43:03.621Z,9.52
2018-12-22T02:44:09.924Z,9.65
2018-12-22T02:45:16.243Z,9.62
2018-12-22T02:46:22.544Z,9.66
2018-12-22T02:47:28.816Z,9.68
2018-12-22T02:48:35.113Z,9.68
2018-12-22T02:49:41.118Z,9.74
2018-12-22T02:50:47.520Z,9.60
2018-12-22T02:51:54.071Z,9.67
2018-12-22T02:53:00.403Z,9.58
2018-12-22T02:54:06.764Z,9.62
2018-12-22T02:55:13.112Z,9.61
2018-12-22T02:56:19.471Z,9.66
2018-12-22T02:57:25.835Z,9.60
2018-12-22T02:58:32.228Z,9.65
2018-12-22T02:59:38.521Z,9.81
2018-12-22T03:00:44.832Z,9.78
2018-12-22T03:01:51.142Z,9.80
2018-12-22T03:02:57.463Z,9.71
2018-12-22T03:04:03.792Z,9.50
2018-12-22T03:05:10.125Z,9.63
2018-12-22T03:06:16.480Z,9.81
2018-12-22T03:07:23.399Z,9.53
2018-12-22T03:08:29.706Z,9.58
2018-12-22T03:09:36.004Z,9.75
2018-12-22T03:10:42.303Z,9.77
2018-12-22T03:11:48.315Z,9.74
2018-12-22T03:12:54.659Z,9.50
2018-12-22T03:14:01.352Z,9.46
2018-12-22T03:15:07.339Z,9.56
2018-12-22T03:16:13.673Z,9.55
2018-12-22T03:17:20.028Z,9.60
2018-12-22T03:18:26.374Z,9.66
2018-12-22T03:19:32.756Z,9.68
2018-12-22T03:20:39.030Z,9.53
2018-12-22T03:21:45.341Z,9.61
2018-12-22T03:22:51.644Z,9.56
2018-12-22T03:23:57.962Z,9.63
2018-12-22T03:25:03.867Z,9.53
2018-12-22T03:26:10.182Z,9.49
2018-12-22T03:27:16.459Z,9.56
2018-12-22T03:28:22.821Z,9.63
2018-12-22T03:29:30.329Z,9.44
2018-12-22T03:30:36.627Z,9.42
2018-12-22T03:31:43.070Z,9.34
2018-12-22T03:32:49.247Z,9.46
2018-12-22T03:33:55.522Z,9.60
2018-12-22T03:35:01.830Z,9.62
2018-12-22T03:36:08.159Z,9.40
2018-12-22T03:37:14.470Z,9.38
2018-12-22T03:38:20.859Z,9.38
2018-12-22T03:39:27.228Z,9.40
2018-12-22T03:40:33.063Z,9.36
2018-12-22T03:41:39.374Z,9.51
2018-12-22T03:42:45.675Z,9.42
2018-12-22T03:43:51.961Z,9.32
2018-12-22T03:44:58.293Z,9.44
2018-12-22T03:46:04.566Z,9.41
2018-12-22T03:47:10.892Z,9.23
2018-12-22T03:48:17.183Z,9.24
2018-12-22T03:49:23.509Z,9.35
2018-12-22T03:50:29.848Z,9.37
2018-12-22T03:51:36.157Z,9.40
2018-12-22T03:52:42.486Z,9.40
2018-12-22T03:53:48.805Z,9.25
2018-12-22T03:54:55.098Z,9.34
2018-12-22T03:56:01.387Z,9.40
2018-12-22T03:57:07.666Z,9.46
2018-12-22T03:58:13.951Z,9.46
2018-12-22T03:59:24.810Z,9.47
2018-12-22T04:00:26.609Z,9.41
2018-12-22T04:01:32.906Z,9.40
2018-12-22T04:02:39.254Z,9.38
2018-12-22T04:03:45.547Z,9.38
2018-12-22T04:04:51.857Z,9.45
2018-12-22T04:05:58.164Z,9.38
2018-12-22T04:07:04.127Z,9.38
2018-12-22T04:08:10.467Z,9.27
2018-12-22T04:09:16.820Z,9.40
2018-12-22T04:10:23.080Z,9.50
2018-12-22T04:11:29.394Z,9.50
2018-12-22T04:12:35.682Z,9.48
2018-12-22T04:13:41.943Z,9.41
2018-12-22T04:14:48.227Z,9.38
2018-12-22T04:15:54.541Z,9.49
2018-12-22T04:17:00.911Z,9.49
2018-12-22T04:18:07.248Z,9.51
2018-12-22T04:19:13.513Z,9.52
2018-12-22T04:20:19.778Z,9.35
2018-12-22T04:21:26.107Z,9.26
2018-12-22T04:22:32.410Z,9.41
2018-12-22T04:23:38.729Z,9.57
2018-12-22T04:24:44.624Z,9.46
2018-12-22T04:25:50.889Z,9.45
2018-12-22T04:26:57.184Z,9.32
2018-12-22T04:28:03.182Z,9.35
2018-12-22T04:29:09.905Z,9.40
2018-12-22T04:30:16.226Z,9.32
2018-12-22T04:31:22.588Z,9.28
2018-12-22T04:32:28.974Z,9.17
2018-12-22T04:33:35.295Z,9.24
2018-12-22T04:34:41.584Z,9.22
2018-12-22T04:35:47.869Z,9.33
2018-12-22T04:36:54.176Z,9.31
2018-12-22T04:38:00.536Z,9.25
2018-12-22T04:39:06.216Z,9.43
2018-12-22T04:40:12.527Z,9.42
2018-12-22T04:41:18.834Z,9.29
2018-12-22T04:42:25.182Z,9.37
2018-12-22T04:43:31.638Z,9.31
2018-12-22T04:44:37.907Z,9.24
2018-12-22T04:45:44.226Z,9.24
2018-12-22T04:46:50.555Z,9.27
2018-12-22T04:47:56.856Z,9.30
2018-12-22T04:49:03.169Z,9.34
2018-12-22T04:50:09.489Z,9.40
2018-12-22T04:51:15.536Z,9.38
2018-12-22T04:52:22.022Z,9.34
2018-12-22T04:53:28.518Z,9.30
2018-12-22T04:54:34.831Z,9.22
2018-12-22T04:55:41.124Z,9.36
2018-12-22T04:56:47.428Z,9.32
2018-12-22T04:57:53.716Z,9.47
2018-12-22T04:59:00.099Z,9.40
2018-12-22T05:00:05.697Z,9.30
2018-12-22T05:01:12.039Z,9.26
2018-12-22T05:02:18.452Z,9.14
2018-12-22T05:03:24.816Z,9.19
2018-12-22T05:04:31.255Z,9.10
2018-12-22T05:05:37.529Z,9.12
2018-12-22T05:06:43.830Z,9.11
2018-12-22T05:07:50.178Z,9.10
2018-12-22T05:08:56.832Z,9.33
2018-12-22T05:10:03.359Z,9.43
2018-12-22T05:11:09.844Z,9.27
2018-12-22T05:12:16.532Z,9.18
2018-12-22T05:13:22.884Z,9.12
2018-12-22T05:14:29.217Z,9.10
2018-12-22T05:15:36.462Z,9.24
2018-12-22T05:16:42.820Z,9.10
2018-12-22T05:17:49.110Z,9.17
2018-12-22T05:18:55.360Z,9.10
2018-12-22T05:20:01.647Z,9.09
2018-12-22T05:21:07.978Z,9.11
2018-12-22T05:22:13.984Z,9.22
2018-12-22T05:23:20.287Z,9.21
2018-12-22T05:24:26.611Z,9.24
2018-12-22T05:25:32.929Z,9.31
2018-12-22T05:26:39.249Z,9.40
2018-12-22T05:27:45.536Z,9.38
2018-12-22T05:28:51.816Z,9.42
2018-12-22T05:29:58.118Z,9.34
2018-12-22T05:31:04.504Z,9.31
2018-12-22T05:32:11.819Z,9.30
2018-12-22T05:33:18.449Z,9.17
2018-12-22T05:34:24.804Z,9.14
2018-12-22T05:35:31.157Z,9.20
2018-12-22T05:36:37.472Z,9.22
2018-12-22T05:37:43.810Z,9.32
2018-12-22T05:38:50.167Z,9.23
2018-12-22T05:39:56.483Z,9.21
2018-12-22T05:41:02.756Z,9.01
2018-12-22T05:42:09.062Z,9.03
2018-12-22T05:43:15.417Z,9.20
2018-12-22T05:44:21.734Z,9.26
2018-12-22T05:45:28.015Z,9.18
2018-12-22T05:46:34.300Z,9.20
2018-12-22T05:47:40.625Z,9.16
2018-12-22T05:48:47.448Z,9.31
2018-12-22T05:49:53.911Z,9.16
2018-12-22T05:51:00.560Z,9.22
2018-12-22T05:52:06.872Z,8.99
2018-12-22T05:53:13.159Z,9.04
2018-12-22T05:54:19.403Z,9.10
2018-12-22T05:55:25.461Z,8.94
2018-12-22T05:56:32.740Z,8.98
2018-12-22T05:57:39.085Z,9.18
2018-12-22T05:58:45.450Z,9.11
2018-12-22T06:00:00.196Z,8.94
2018-12-22T06:00:58.124Z,8.77
2018-12-22T06:02:04.784Z,8.78
2018-12-22T06:03:11.238Z,8.96
2018-12-22T06:04:17.577Z,9.05
2018-12-22T06:05:23.960Z,8.96
2018-12-22T06:06:30.384Z,9.00
2018-12-22T06:07:36.738Z,9.04
2018-12-22T06:08:43.087Z,9.01
2018-12-22T06:09:49.445Z,9.06
2018-12-22T06:10:55.756Z,9.09
2018-12-22T06:12:02.132Z,9.09
2018-12-22T06:13:08.508Z,9.17
2018-12-22T06:14:14.827Z,9.14
2018-12-22T06:15:21.179Z,9.18
2018-12-22T06:16:27.489Z,9.22
2018-12-22T06:17:33.986Z,9.03
2018-12-22T06:18:40.204Z,9.05
2018-12-22T06:19:46.562Z,9.16
2018-12-22T06:20:52.957Z,9.33
2018-12-22T06:21:59.552Z,9.24
2018-12-22T06:23:06.489Z,9.13
2018-12-22T06:24:12.832Z,9.12
2018-12-22T06:25:19.208Z,9.12
2018-12-22T06:26:26.479Z,9.16
2018-12-22T06:27:32.850Z,9.15
2018-12-22T06:28:39.181Z,9.21
2018-12-22T06:29:45.467Z,9.05
2018-12-22T06:30:51.836Z,9.17
2018-12-22T06:31:58.758Z,9.09
2018-12-22T06:33:05.112Z,9.09
2018-12-22T06:34:11.432Z,8.98
2018-12-22T06:35:17.748Z,8.93
2018-12-22T06:36:24.269Z,8.82
2018-12-22T06:37:30.598Z,8.84
2018-12-22T06:38:37.301Z,8.99
2018-12-22T06:39:44.336Z,8.98
2018-12-22T06:40:51.274Z,8.87
2018-12-22T06:41:59.031Z,9.01
2018-12-22T06:43:05.977Z,9.00
2018-12-22T06:44:16.207Z,8.81
2018-12-22T06:45:23.713Z,8.72
2018-12-22T06:46:30.519Z,8.77
2018-12-22T06:47:38.169Z,8.81
2018-12-22T06:48:45.049Z,8.92
2018-12-22T06:49:51.364Z,9.00
2018-12-22T06:50:57.665Z,8.94
2018-12-22T06:52:03.980Z,8.80
2018-12-22T06:53:10.281Z,8.75
2018-12-22T06:54:16.614Z,8.82
2018-12-22T06:55:22.888Z,8.96
2018-12-22T06:56:29.242Z,9.14
2018-12-22T06:57:35.592Z,9.04
2018-12-22T06:58:41.918Z,9.07
2018-12-22T06:59:48.222Z,8.83
2018-12-22T07:00:54.580Z,8.56
2018-12-22T07:02:01.256Z,8.62
2018-12-22T07:03:07.646Z,8.77
2018-12-22T07:04:13.905Z,8.65
2018-12-22T07:05:20.204Z,8.75
2018-12-22T07:06:26.468Z,8.81
2018-12-22T07:07:32.769Z,8.77
2018-12-22T07:08:39.070Z,8.81
2018-12-22T07:09:45.425Z,8.65
2018-12-22T07:10:51.757Z,8.82
2018-12-22T07:11:58.128Z,8.95
2018-12-22T07:13:04.440Z,8.86
2018-12-22T07:14:10.721Z,8.74
2018-12-22T07:15:17.025Z,8.66
2018-12-22T07:16:23.292Z,8.60
2018-12-22T07:17:29.609Z,8.83
2018-12-22T07:18:36.060Z,8.77
2018-12-22T07:19:42.363Z,8.79
2018-12-22T07:20:48.762Z,8.82
2018-12-22T07:21:55.072Z,8.76
2018-12-22T07:23:01.427Z,8.67
2018-12-22T07:24:07.458Z,8.55
2018-12-22T07:25:13.792Z,8.46
2018-12-22T07:26:20.064Z,8.48
2018-12-22T07:27:26.377Z,8.46
2018-12-22T07:28:32.724Z,8.42
2018-12-22T07:29:39.000Z,8.35
2018-12-22T07:30:45.284Z,8.32
2018-12-22T07:31:51.606Z,8.24
2018-12-22T07:32:57.990Z,8.21
2018-12-22T07:34:04.298Z,8.15
2018-12-22T07:35:10.620Z,8.26
2018-12-22T07:36:16.539Z,8.44
2018-12-22T07:37:22.861Z,8.43
2018-12-22T07:38:29.194Z,8.27
2018-12-22T07:39:35.470Z,8.12
2018-12-22T07:40:41.816Z,8.04
2018-12-22T07:41:48.553Z,7.97
2018-12-22T07:42:59.247Z,8.01
2018-12-22T07:44:07.292Z,8.13
2018-12-22T07:45:14.787Z,8.33
2018-12-22T07:46:22.207Z,8.40
2018-12-22T07:47:30.654Z,8.14
2018-12-22T07:48:37.626Z,8.04
2018-12-22T07:49:45.429Z,7.93
2018-12-22T07:50:52.687Z,7.89
2018-12-22T07:52:00.291Z,8.19
2018-12-22T07:53:07.734Z,8.22
2018-12-22T07:54:15.054Z,8.15
2018-12-22T07:55:23.045Z,8.06
2018-12-22T07:56:30.451Z,7.98
2018-12-22T07:57:39.026Z,7.90
2018-12-22T07:58:46.372Z,8.02
2018-12-22T07:59:53.886Z,8.26
2018-12-22T08:01:01.414Z,8.32
2018-12-22T08:02:09.053Z,8.14
2018-12-22T08:03:16.625Z,7.96
2018-12-22T08:04:23.931Z,7.92
2018-12-22T08:05:38.719Z,7.84
2018-12-22T08:06:41.198Z,7.84
2018-12-22T08:07:49.621Z,7.86
2018-12-22T08:08:56.822Z,8.00
2018-12-22T08:10:04.450Z,7.93
2018-12-22T08:11:11.922Z,7.93
2018-12-22T08:12:19.461Z,7.91
2018-12-22T08:13:28.308Z,7.95
2018-12-22T08:14:36.456Z,8.28
2018-12-22T08:15:43.922Z,8.27
2018-12-22T08:16:52.504Z,8.13
2018-12-22T08:18:00.152Z,8.09
2018-12-22T08:19:07.665Z,8.32
2018-12-22T08:20:14.838Z,8.36
2018-12-22T08:21:22.233Z,8.35
2018-12-22T08:22:30.505Z,8.20
2018-12-22T08:23:38.116Z,8.54
2018-12-22T08:24:45.530Z,8.55
2018-12-22T08:25:53.226Z,8.53
2018-12-22T08:27:00.803Z,8.46
2018-12-22T08:28:08.896Z,8.13
2018-12-22T08:29:17.211Z,8.10
2018-12-22T08:30:24.589Z,8.06
2018-12-22T08:31:31.815Z,8.04
2018-12-22T08:32:39.848Z,8.00
2018-12-22T08:33:48.277Z,8.06
2018-12-22T08:34:56.360Z,8.06
2018-12-22T08:36:03.819Z,8.03
2018-12-22T08:37:11.222Z,7.98
2018-12-22T08:38:18.796Z,8.02
2018-12-22T08:39:26.665Z,8.23
2018-12-22T08:40:34.173Z,8.22
2018-12-22T08:41:41.550Z,8.17
2018-12-22T08:42:49.880Z,8.32
2018-12-22T08:43:58.629Z,8.34
2018-12-22T08:45:05.945Z,8.31
2018-12-22T08:46:14.233Z,8.17
2018-12-22T09:49:03.933Z,7.52
2018-12-22T09:50:09.793Z,7.46
2018-12-22T09:51:16.143Z,7.47
2018-12-22T09:52:22.449Z,7.37
2018-12-22T09:53:28.825Z,7.48
2018-12-22T09:54:35.122Z,7.44
2018-12-22T09:55:41.444Z,7.40
2018-12-22T09:56:47.744Z,7.51
2018-12-22T09:57:54.079Z,7.65
2018-12-22T09:59:00.440Z,7.69
2018-12-22T10:00:06.090Z,7.45
2018-12-22T10:01:12.380Z,7.34
2018-12-22T10:02:18.705Z,7.40
2018-12-22T10:03:25.130Z,7.32
2018-12-22T10:04:31.516Z,7.28
2018-12-22T10:05:37.685Z,7.38
2018-12-22T10:06:44.023Z,7.29
2018-12-22T10:07:50.388Z,7.37
2018-12-22T10:08:56.746Z,7.34
2018-12-22T10:10:02.678Z,7.17
2018-12-22T10:11:08.383Z,7.33
2018-12-22T10:12:14.760Z,7.19
2018-12-22T10:13:21.126Z,7.16
2018-12-22T10:14:27.437Z,7.23
2018-12-22T10:15:33.797Z,7.17
2018-12-22T10:16:40.268Z,7.15
2018-12-22T10:17:49.103Z,7.20
2018-12-22T10:18:55.900Z,7.22
2018-12-22T10:20:02.265Z,7.17
2018-12-22T10:21:08.677Z,7.14
2018-12-22T10:22:15.887Z,6.95
2018-12-22T10:23:22.234Z,7.11
2018-12-22T10:24:28.905Z,7.05
2018-12-22T10:25:35.387Z,6.92
2018-12-22T10:26:41.862Z,6.93
2018-12-22T10:27:48.187Z,7.00
2018-12-22T10:28:54.726Z,7.06
2018-12-22T10:30:01.339Z,6.91
2018-12-22T10:31:07.957Z,6.96
2018-12-22T10:32:14.313Z,6.96
2018-12-22T10:33:20.690Z,6.83
2018-12-22T10:34:26.677Z,6.91
2018-12-22T10:35:32.744Z,6.86
2018-12-22T10:36:39.115Z,6.73
2018-12-22T10:37:45.529Z,6.71
2018-12-22T10:38:51.903Z,6.79
2018-12-22T10:39:58.234Z,6.83
2018-12-22T10:41:04.648Z,6.97
2018-12-22T10:42:11.064Z,6.91
2018-12-22T10:43:17.381Z,6.79
2018-12-22T10:44:23.738Z,6.83
2018-12-22T10:45:30.035Z,6.87
2018-12-22T10:46:36.460Z,6.84
2018-12-22T10:47:42.819Z,6.79
2018-12-22T10:48:49.263Z,6.73
2018-12-22T10:49:55.651Z,6.58
2018-12-22T10:51:02.683Z,6.60
2018-12-22T10:52:09.462Z,6.74
2018-12-22T10:53:16.385Z,6.82
2018-12-22T10:54:24.618Z,6.77
2018-12-22T10:55:32.292Z,6.65
2018-12-22T10:56:41.351Z,6.66
2018-12-22T10:57:48.815Z,6.58
2018-12-22T10:58:56.563Z,6.63
2018-12-22T11:00:03.644Z,6.72
2018-12-22T11:01:12.988Z,6.75
2018-12-22T11:02:20.288Z,6.71
2018-12-22T11:03:27.802Z,6.73
2018-12-22T11:04:35.761Z,6.86
2018-12-22T11:05:44.299Z,6.69
2018-12-22T11:06:51.630Z,6.73
2018-12-22T11:07:59.396Z,6.73
2018-12-22T11:09:06.125Z,6.72
2018-12-22T11:10:14.382Z,6.61
2018-12-22T11:11:21.542Z,6.54
2018-12-22T11:12:28.797Z,6.61
2018-12-22T11:13:36.743Z,6.77
2018-12-22T11:14:44.123Z,6.65
2018-12-22T11:15:51.705Z,6.66
2018-12-22T11:16:59.020Z,6.69
2018-12-22T11:18:06.573Z,6.71
2018-12-22T11:19:13.948Z,6.78
2018-12-22T11:20:22.746Z,6.80
2018-12-22T11:21:30.191Z,6.66
2018-12-22T11:22:37.774Z,6.52
2018-12-22T11:23:45.351Z,6.60
2018-12-22T11:24:53.578Z,6.54
2018-12-22T11:26:01.462Z,6.53
2018-12-22T11:27:09.270Z,6.64
2018-12-22T11:28:16.583Z,6.56
2018-12-22T11:29:24.215Z,6.59
2018-12-22T11:30:32.830Z,6.61
2018-12-22T11:31:40.944Z,6.58
2018-12-22T11:32:48.673Z,6.65
2018-12-22T11:33:56.177Z,6.71
2018-12-22T11:35:03.709Z,6.81
2018-12-22T11:36:10.969Z,6.66
2018-12-22T11:37:19.853Z,6.56
2018-12-22T11:38:27.740Z,6.56
2018-12-22T11:39:36.295Z,6.64
2018-12-22T11:40:43.722Z,6.53
2018-12-22T11:41:51.041Z,6.56
2018-12-22T11:42:58.287Z,6.42
2018-12-22T11:44:06.482Z,6.60
2018-12-22T11:45:13.896Z,6.50
2018-12-22T11:46:21.412Z,6.42
2018-12-22T11:47:30.129Z,6.57
2018-12-22T11:48:37.593Z,6.53
2018-12-22T11:49:46.411Z,6.55
2018-12-22T11:50:53.755Z,6.51
2018-12-22T11:52:02.085Z,6.39
2018-12-22T11:53:09.435Z,6.38
2018-12-22T11:54:17.036Z,6.45
2018-12-22T11:55:24.259Z,6.60
2018-12-22T11:56:32.927Z,6.62
2018-12-22T11:57:40.372Z,6.43
2018-12-22T11:58:47.836Z,6.49
2018-12-22T11:59:55.166Z,6.36
2018-12-22T12:01:02.484Z,6.38
2018-12-22T12:02:10.096Z,6.49
2018-12-22T12:03:16.439Z,6.30
2018-12-22T12:04:24.075Z,6.33
2018-12-22T12:05:33.105Z,6.35
2018-12-22T12:06:41.506Z,6.26
2018-12-22T12:07:48.961Z,6.29
2018-12-22T12:08:55.838Z,6.22
2018-12-22T12:10:02.237Z,6.22
2018-12-22T12:11:08.625Z,6.11
2018-12-22T12:12:14.649Z,6.27
2018-12-22T12:13:21.022Z,6.29
2018-12-22T12:14:26.761Z,6.24
2018-12-22T12:15:32.486Z,6.23
2018-12-22T12:16:38.566Z,6.24
2018-12-22T12:18:01.182Z,6.16
2018-12-22T12:19:07.978Z,6.18
2018-12-22T12:20:14.414Z,6.27
2018-12-22T12:21:20.769Z,6.20
2018-12-22T12:22:27.164Z,6.11
2018-12-22T12:23:33.574Z,6.14
2018-12-22T12:24:39.973Z,6.21
2018-12-22T12:25:46.323Z,6.26
2018-12-22T12:26:52.288Z,6.26
2018-12-22T12:27:58.701Z,6.27
2018-12-22T12:29:05.115Z,6.32
2018-12-22T12:30:11.059Z,6.34
2018-12-22T12:31:17.454Z,6.27
2018-12-22T12:32:23.843Z,6.26
2018-12-22T12:33:30.233Z,6.36
2018-12-22T12:34:36.671Z,6.30
2018-12-22T12:35:43.164Z,6.49
2018-12-22T12:36:49.472Z,6.57
2018-12-22T12:37:55.842Z,6.62
2018-12-22T12:39:02.249Z,6.40
2018-12-22T12:40:07.859Z,6.44
2018-12-22T12:41:14.207Z,6.28
2018-12-22T12:42:20.548Z,6.27
2018-12-22T12:43:26.935Z,6.47
2018-12-22T12:44:33.349Z,6.55
2018-12-22T12:45:38.973Z,6.63
2018-12-22T12:46:45.284Z,6.54
2018-12-22T12:47:51.693Z,6.44
2018-12-22T12:48:58.108Z,6.36
2018-12-22T12:50:03.859Z,6.35
2018-12-22T12:51:10.252Z,6.53
2018-12-22T12:52:16.616Z,6.55
2018-12-22T12:53:22.569Z,6.56
2018-12-22T12:54:29.002Z,6.59
2018-12-22T12:55:35.315Z,6.61
2018-12-22T12:56:41.261Z,6.60
2018-12-22T12:57:47.597Z,6.50
2018-12-22T12:58:53.913Z,6.57
2018-12-22T13:00:00.302Z,6.60
2018-12-22T13:01:06.616Z,6.54
2018-12-22T13:02:12.952Z,6.63
2018-12-22T13:03:19.271Z,6.54
2018-12-22T13:04:25.618Z,6.57
2018-12-22T13:05:31.990Z,6.43
2018-12-22T13:06:38.361Z,6.44
2018-12-22T13:07:45.277Z,6.41
2018-12-22T13:08:51.643Z,6.52
2018-12-22T13:09:58.402Z,6.51
2018-12-22T13:11:04.407Z,6.45
2018-12-22T13:12:10.345Z,6.55
2018-12-22T13:13:18.584Z,6.60
2018-12-22T13:14:24.964Z,6.61
2018-12-22T13:15:31.332Z,6.69
2018-12-22T13:16:37.663Z,6.58
2018-12-22T13:17:43.951Z,6.56
2018-12-22T13:18:50.275Z,6.51
2018-12-22T13:19:56.706Z,6.56
2018-12-22T13:21:02.489Z,6.57
2018-12-22T13:22:08.825Z,6.54
2018-12-22T13:23:15.162Z,6.48
2018-12-22T13:24:21.549Z,6.50
2018-12-22T13:25:27.838Z,6.47
2018-12-22T13:26:36.846Z,6.60
2018-12-22T13:27:40.474Z,6.69
2018-12-22T13:28:46.808Z,6.82
2018-12-22T13:29:53.150Z,6.80
2018-12-22T13:30:59.472Z,6.85
2018-12-22T13:32:09.468Z,6.67
2018-12-22T13:33:12.240Z,6.78
2018-12-22T13:34:18.603Z,6.76
2018-12-22T13:35:24.914Z,6.78
2018-12-22T13:36:34.823Z,6.69
2018-12-22T13:37:37.602Z,6.58
2018-12-22T13:38:43.228Z,6.59
2018-12-22T13:39:49.638Z,6.78
2018-12-22T13:40:55.940Z,6.77
2018-12-22T13:42:02.269Z,6.72
2018-12-22T13:43:08.636Z,6.78
2018-12-22T13:44:14.909Z,6.71
2018-12-22T13:45:21.281Z,6.60
2018-12-22T13:46:27.594Z,6.67
2018-12-22T13:47:34.262Z,6.62
2018-12-22T13:48:40.077Z,6.73
2018-12-22T13:49:46.649Z,6.81
2018-12-22T13:50:53.040Z,6.88
2018-12-22T13:51:59.094Z,6.81
2018-12-22T13:53:05.445Z,6.84
2018-12-22T13:54:11.795Z,6.95
2018-12-22T13:55:18.172Z,6.87
2018-12-22T13:56:24.479Z,6.78
2018-12-22T13:57:30.804Z,6.87
2018-12-22T13:58:37.572Z,7.00
2018-12-22T13:59:43.573Z,6.86
2018-12-22T14:00:49.884Z,6.94
2018-12-22T14:01:55.921Z,6.96
2018-12-22T14:03:02.172Z,6.97
2018-12-22T14:04:08.907Z,6.85
2018-12-22T14:05:23.394Z,6.97
2018-12-22T14:06:29.809Z,7.02
2018-12-22T14:07:36.232Z,7.01
2018-12-22T14:08:42.659Z,7.06
2018-12-22T14:09:49.053Z,6.90
2018-12-22T14:10:55.339Z,6.92
2018-12-22T14:12:02.390Z,6.93
2018-12-22T14:13:10.070Z,6.96
2018-12-22T14:14:18.331Z,6.90
2018-12-22T14:15:23.497Z,6.78
2018-12-22T14:16:29.116Z,6.84
2018-12-22T14:17:34.746Z,6.77
2018-12-22T14:18:40.389Z,6.70
2018-12-22T14:19:46.835Z,6.76
2018-12-22T14:20:56.766Z,6.87
2018-12-22T14:22:04.094Z,6.75
2018-12-22T14:23:11.465Z,6.66
2018-12-22T14:24:18.138Z,6.79
2018-12-22T14:25:24.695Z,6.78
2018-12-22T14:26:31.062Z,6.80
2018-12-22T14:27:37.621Z,6.61
2018-12-22T14:28:45.224Z,6.76
2018-12-22T14:29:52.001Z,6.80
2018-12-22T14:30:58.301Z,6.89
2018-12-22T14:32:04.642Z,6.75
2018-12-22T14:33:10.985Z,6.70
2018-12-22T14:34:16.593Z,6.70
2018-12-22T14:35:22.286Z,6.65
2018-12-22T14:36:28.617Z,6.79
2018-12-22T14:37:34.941Z,6.78
2018-12-22T14:38:41.258Z,6.70
2018-12-22T14:39:47.651Z,6.68
2018-12-22T14:40:53.965Z,6.79
2018-12-22T14:42:00.261Z,6.73
2018-12-22T14:43:06.572Z,6.77
2018-12-22T14:44:12.880Z,6.69
2018-12-22T14:45:19.265Z,6.72
2018-12-22T14:46:25.580Z,6.70
2018-12-22T14:47:33.145Z,6.64
2018-12-22T14:48:39.484Z,6.82
2018-12-22T14:49:45.859Z,6.90
2018-12-22T14:50:52.217Z,6.95
2018-12-22T14:51:58.509Z,6.81
2018-12-22T14:53:04.857Z,6.73
2018-12-22T14:54:11.170Z,6.60
2018-12-22T14:55:17.523Z,6.68
2018-12-22T14:56:28.499Z,6.71
2018-12-22T14:57:34.103Z,6.68
2018-12-22T14:58:40.422Z,6.70
2018-12-22T14:59:46.818Z,6.55
2018-12-22T15:00:53.170Z,6.54
2018-12-22T15:01:59.474Z,6.62
2018-12-22T15:03:05.786Z,6.58
2018-12-22T15:04:12.125Z,6.50
2018-12-22T15:05:18.593Z,6.57
2018-12-22T15:06:24.953Z,6.61
2018-12-22T15:07:31.263Z,6.54
2018-12-22T15:08:37.638Z,6.74
2018-12-22T15:09:44.405Z,6.80
2018-12-22T15:10:50.879Z,6.94
2018-12-22T15:11:57.210Z,6.94
2018-12-22T15:13:03.509Z,6.96
2018-12-22T15:14:09.897Z,6.91
2018-12-22T15:15:16.259Z,6.98
2018-12-22T15:16:22.600Z,6.83
2018-12-22T15:17:28.920Z,6.79
2018-12-22T15:18:35.259Z,6.85
2018-12-22T15:19:41.665Z,6.88
2018-12-22T15:20:48.044Z,6.74
2018-12-22T15:21:54.029Z,6.85
2018-12-22T15:22:59.671Z,6.83
2018-12-22T15:24:05.993Z,6.93
2018-12-22T15:25:12.410Z,6.99
2018-12-22T15:26:18.384Z,6.97
2018-12-22T15:27:24.733Z,6.84
2018-12-22T15:28:31.083Z,6.86
2018-12-22T15:29:37.440Z,6.74
2018-12-22T15:30:44.334Z,6.93
2018-12-22T15:31:51.166Z,6.88
2018-12-22T15:32:57.509Z,6.86
2018-12-22T15:34:03.493Z,6.83
2018-12-22T15:35:09.186Z,6.69
2018-12-22T15:36:15.541Z,6.61
2018-12-22T15:37:21.897Z,6.77
2018-12-22T15:38:28.302Z,6.75
2018-12-22T15:39:34.673Z,6.77
2018-12-22T15:40:41.089Z,6.65
2018-12-22T15:41:47.406Z,6.57
2018-12-22T15:42:53.744Z,6.54
2018-12-22T15:44:00.102Z,6.69